sensor_id;sensor_type;location;lat;lon;timestamp;pressure;altitude;pressure_sealevel;temperature;humidity
36234;BME280;43467;50.890;5.982;2023-02-05T00:00:05;102292.25;;;9.90;90.79
36234;BME280;43467;50.890;5.982;2023-02-05T00:02:31;102287.84;;;9.90;91.20
36234;BME280;43467;50.890;5.982;2023-02-05T00:04:56;102275.50;;;9.88;91.13
36234;BME280;43467;50.890;5.982;2023-02-05T00:07:22;102275.53;;;9.83;91.31
36234;BME280;43467;50.890;5.982;2023-02-05T00:09:48;102274.66;;;9.82;91.65
36234;BME280;43467;50.890;5.982;2023-02-05T00:12:13;102269.41;;;9.81;91.72
36234;BME280;43467;50.890;5.982;2023-02-05T00:14:38;102264.13;;;9.81;91.47
36234;BME280;43467;50.890;5.982;2023-02-05T00:17:04;102261.44;;;9.82;91.39
36234;BME280;43467;50.890;5.982;2023-02-05T00:19:29;102243.88;;;9.75;91.38
36234;BME280;43467;50.890;5.982;2023-02-05T00:21:54;102260.56;;;9.84;91.16
36234;BME280;43467;50.890;5.982;2023-02-05T00:24:20;102256.97;;;9.89;91.16
36234;BME280;43467;50.890;5.982;2023-02-05T00:26:45;102249.13;;;9.82;90.85
36234;BME280;43467;50.890;5.982;2023-02-05T00:29:11;102250.84;;;9.82;91.44
36234;BME280;43467;50.890;5.982;2023-02-05T00:31:36;102257.16;;;9.72;92.14
36234;BME280;43467;50.890;5.982;2023-02-05T00:34:01;102257.31;;;9.57;92.87
36234;BME280;43467;50.890;5.982;2023-02-05T00:36:27;102258.94;;;9.69;92.67
36234;BME280;43467;50.890;5.982;2023-02-05T00:38:52;102257.09;;;9.77;92.44
36234;BME280;43467;50.890;5.982;2023-02-05T00:41:18;102246.66;;;9.65;92.17
36234;BME280;43467;50.890;5.982;2023-02-05T00:43:44;102262.41;;;9.75;92.31
36234;BME280;43467;50.890;5.982;2023-02-05T00:46:10;102251.84;;;9.72;92.22
36234;BME280;43467;50.890;5.982;2023-02-05T00:48:36;102249.13;;;9.78;92.05
36234;BME280;43467;50.890;5.982;2023-02-05T00:51:02;102240.25;;;9.86;91.40
36234;BME280;43467;50.890;5.982;2023-02-05T00:53:28;102237.69;;;9.78;91.76
36234;BME280;43467;50.890;5.982;2023-02-05T00:55:53;102238.59;;;9.75;91.98
36234;BME280;43467;50.890;5.982;2023-02-05T00:58:19;102229.84;;;9.69;91.77
36234;BME280;43467;50.890;5.982;2023-02-05T01:00:44;102227.16;;;9.73;92.11
36234;BME280;43467;50.890;5.982;2023-02-05T01:03:11;102228.06;;;9.72;92.02
36234;BME280;43467;50.890;5.982;2023-02-05T01:05:37;102209.66;;;9.60;92.14
36234;BME280;43467;50.890;5.982;2023-02-05T01:08:04;102212.22;;;9.69;92.57
36234;BME280;43467;50.890;5.982;2023-02-05T01:10:30;102198.25;;;9.57;92.73
36234;BME280;43467;50.890;5.982;2023-02-05T01:12:56;102193.03;;;9.49;93.39
36234;BME280;43467;50.890;5.982;2023-02-05T01:15:21;102199.13;;;9.54;93.38
36234;BME280;43467;50.890;5.982;2023-02-05T01:17:47;102189.38;;;9.59;93.23
36234;BME280;43467;50.890;5.982;2023-02-05T01:20:13;102180.69;;;9.48;93.34
36234;BME280;43467;50.890;5.982;2023-02-05T01:22:38;102185.81;;;9.63;92.98
36234;BME280;43467;50.890;5.982;2023-02-05T01:25:04;102183.13;;;9.69;92.50
36234;BME280;43467;50.890;5.982;2023-02-05T01:27:31;102189.25;;;9.73;92.47
36234;BME280;43467;50.890;5.982;2023-02-05T01:29:57;102206.94;;;9.69;91.91
36234;BME280;43467;50.890;5.982;2023-02-05T01:32:22;102197.19;;;9.71;92.19
36234;BME280;43467;50.890;5.982;2023-02-05T01:34:47;102196.31;;;9.72;92.32
36234;BME280;43467;50.890;5.982;2023-02-05T01:37:13;102169.03;;;9.69;91.99
36234;BME280;43467;50.890;5.982;2023-02-05T01:39:38;102198.91;;;9.77;91.98
36234;BME280;43467;50.890;5.982;2023-02-05T01:42:15;102196.25;;;9.75;92.08
36234;BME280;43467;50.890;5.982;2023-02-05T01:44:42;102195.28;;;9.82;91.96
36234;BME280;43467;50.890;5.982;2023-02-05T01:47:07;102195.38;;;9.75;92.45
36234;BME280;43467;50.890;5.982;2023-02-05T01:49:37;102191.19;;;9.54;92.96
36234;BME280;43467;50.890;5.982;2023-02-05T01:52:07;102189.50;;;9.47;92.89
36234;BME280;43467;50.890;5.982;2023-02-05T01:54:34;102192.03;;;9.59;92.87
36234;BME280;43467;50.890;5.982;2023-02-05T01:57:17;102194.72;;;9.55;92.55
36234;BME280;43467;50.890;5.982;2023-02-05T01:59:44;102199.88;;;9.68;91.84
36234;BME280;43467;50.890;5.982;2023-02-05T02:02:10;102192.91;;;9.61;91.39
36234;BME280;43467;50.890;5.982;2023-02-05T02:04:41;102196.47;;;9.56;91.67
36234;BME280;43467;50.890;5.982;2023-02-05T02:07:13;102197.19;;;9.71;91.43
36234;BME280;43467;50.890;5.982;2023-02-05T02:09:40;102179.56;;;9.70;91.55
36234;BME280;43467;50.890;5.982;2023-02-05T02:12:08;102196.34;;;9.66;90.68
36234;BME280;43467;50.890;5.982;2023-02-05T02:14:35;102194.53;;;9.71;90.76
36234;BME280;43467;50.890;5.982;2023-02-05T02:17:02;102197.19;;;9.73;90.72
36234;BME280;43467;50.890;5.982;2023-02-05T02:19:55;102204.28;;;9.66;90.49
36234;BME280;43467;50.890;5.982;2023-02-05T02:27:52;102219.22;;;9.73;91.06
36234;BME280;43467;50.890;5.982;2023-02-05T02:35:46;102206.06;;;9.67;91.18
36234;BME280;43467;50.890;5.982;2023-02-05T02:38:20;102203.31;;;9.76;91.04
36234;BME280;43467;50.890;5.982;2023-02-05T02:40:54;102202.56;;;9.62;91.05
36234;BME280;43467;50.890;5.982;2023-02-05T02:43:25;102208.66;;;9.70;91.15
36234;BME280;43467;50.890;5.982;2023-02-05T02:45:59;102204.28;;;9.68;91.46
36234;BME280;43467;50.890;5.982;2023-02-05T02:48:28;102207.91;;;9.61;91.94
36234;BME280;43467;50.890;5.982;2023-02-05T02:50:55;102202.59;;;9.61;91.94
36234;BME280;43467;50.890;5.982;2023-02-05T02:53:28;102214.03;;;9.63;91.88
36234;BME280;43467;50.890;5.982;2023-02-05T02:55:55;102205.09;;;9.74;91.03
36234;BME280;43467;50.890;5.982;2023-02-05T02:58:29;102191.00;;;9.72;91.74
36234;BME280;43467;50.890;5.982;2023-02-05T03:00:57;102193.75;;;9.65;91.52
36234;BME280;43467;50.890;5.982;2023-02-05T03:03:25;102188.59;;;9.51;92.04
36234;BME280;43467;50.890;5.982;2023-02-05T03:05:54;102186.66;;;9.67;92.30
36234;BME280;43467;50.890;5.982;2023-02-05T03:08:40;102181.41;;;9.64;91.96
36234;BME280;43467;50.890;5.982;2023-02-05T03:11:13;102181.78;;;9.27;92.99
36234;BME280;43467;50.890;5.982;2023-02-05T03:13:40;102179.19;;;9.21;93.66
36234;BME280;43467;50.890;5.982;2023-02-05T03:16:06;102164.09;;;9.34;93.64
36234;BME280;43467;50.890;5.982;2023-02-05T03:18:32;102167.59;;;9.36;93.09
36234;BME280;43467;50.890;5.982;2023-02-05T03:21:02;102153.75;;;9.11;93.78
36234;BME280;43467;50.890;5.982;2023-02-05T03:23:28;102146.66;;;9.16;94.13
36234;BME280;43467;50.890;5.982;2023-02-05T03:25:54;102145.81;;;9.10;94.91
36234;BME280;43467;50.890;5.982;2023-02-05T03:28:19;102145.03;;;9.00;94.52
36234;BME280;43467;50.890;5.982;2023-02-05T03:30:52;102147.56;;;9.11;94.70
36234;BME280;43467;50.890;5.982;2023-02-05T03:36:24;102163.59;;;8.90;95.48
36234;BME280;43467;50.890;5.982;2023-02-05T03:39:11;102153.00;;;8.96;95.90
36234;BME280;43467;50.890;5.982;2023-02-05T03:41:50;102135.28;;;9.08;95.98
36234;BME280;43467;50.890;5.982;2023-02-05T03:44:31;102139.72;;;9.03;95.19
36234;BME280;43467;50.890;5.982;2023-02-05T03:49:58;102157.34;;;9.04;95.41
36234;BME280;43467;50.890;5.982;2023-02-05T03:52:37;102146.81;;;8.98;95.83
36234;BME280;43467;50.890;5.982;2023-02-05T03:55:18;102146.59;;;9.24;94.56
36234;BME280;43467;50.890;5.982;2023-02-05T04:00:48;102146.81;;;9.00;95.37
36234;BME280;43467;50.890;5.982;2023-02-05T04:03:14;102175.72;;;9.13;95.09
36234;BME280;43467;50.890;5.982;2023-02-05T04:05:40;102165.25;;;9.03;95.09
36234;BME280;43467;50.890;5.982;2023-02-05T04:08:05;102171.34;;;9.11;95.06
36234;BME280;43467;50.890;5.982;2023-02-05T04:10:31;102175.75;;;9.12;95.34
36234;BME280;43467;50.890;5.982;2023-02-05T04:12:56;102181.84;;;9.20;94.51
36234;BME280;43467;50.890;5.982;2023-02-05T04:15:21;102190.03;;;8.90;96.13
36234;BME280;43467;50.890;5.982;2023-02-05T04:17:47;102184.72;;;8.96;96.28
36234;BME280;43467;50.890;5.982;2023-02-05T04:20:12;102197.09;;;8.86;96.59
36234;BME280;43467;50.890;5.982;2023-02-05T04:22:38;102198.03;;;8.79;97.05
36234;BME280;43467;50.890;5.982;2023-02-05T04:25:03;102200.78;;;8.64;97.65
36234;BME280;43467;50.890;5.982;2023-02-05T04:27:28;102214.00;;;8.58;98.38
36234;BME280;43467;50.890;5.982;2023-02-05T04:29:54;102214.94;;;8.51;97.90
36234;BME280;43467;50.890;5.982;2023-02-05T04:32:19;102232.63;;;8.33;98.09
36234;BME280;43467;50.890;5.982;2023-02-05T04:34:45;102223.81;;;8.39;97.86
36234;BME280;43467;50.890;5.982;2023-02-05T04:37:10;102118.47;;;7.89;97.31
36234;BME280;43467;50.890;5.982;2023-02-05T04:39:35;102205.31;;;8.44;96.87
36234;BME280;43467;50.890;5.982;2023-02-05T04:42:01;102192.16;;;8.27;96.89
36234;BME280;43467;50.890;5.982;2023-02-05T04:44:27;102191.22;;;8.40;96.72
36234;BME280;43467;50.890;5.982;2023-02-05T04:46:52;102187.63;;;8.53;96.43
36234;BME280;43467;50.890;5.982;2023-02-05T04:49:18;102192.94;;;8.50;95.27
36234;BME280;43467;50.890;5.982;2023-02-05T04:51:43;102198.19;;;8.59;94.26
36234;BME280;43467;50.890;5.982;2023-02-05T04:54:09;102191.06;;;8.69;94.65
36234;BME280;43467;50.890;5.982;2023-02-05T04:56:34;102182.25;;;8.70;93.86
36234;BME280;43467;50.890;5.982;2023-02-05T04:59:00;102172.50;;;8.76;93.74
36234;BME280;43467;50.890;5.982;2023-02-05T05:01:25;102167.19;;;8.82;92.86
36234;BME280;43467;50.890;5.982;2023-02-05T05:03:50;102172.50;;;8.76;93.07
36234;BME280;43467;50.890;5.982;2023-02-05T05:06:17;102184.84;;;8.79;93.19
36234;BME280;43467;50.890;5.982;2023-02-05T05:08:43;102190.09;;;8.82;92.74
36234;BME280;43467;50.890;5.982;2023-02-05T05:11:13;102188.34;;;8.79;92.49
36234;BME280;43467;50.890;5.982;2023-02-05T05:13:41;102195.44;;;8.68;92.50
36234;BME280;43467;50.890;5.982;2023-02-05T05:16:07;102195.41;;;8.77;92.20
36234;BME280;43467;50.890;5.982;2023-02-05T05:18:33;102191.03;;;8.75;92.22
36234;BME280;43467;50.890;5.982;2023-02-05T05:20:59;102191.00;;;8.79;91.83
36234;BME280;43467;50.890;5.982;2023-02-05T05:23:25;102189.25;;;8.80;91.98
36234;BME280;43467;50.890;5.982;2023-02-05T05:25:50;102185.78;;;8.69;91.44
36234;BME280;43467;50.890;5.982;2023-02-05T05:28:15;102193.72;;;8.64;92.17
36234;BME280;43467;50.890;5.982;2023-02-05T05:30:43;102190.22;;;8.61;93.04
36234;BME280;43467;50.890;5.982;2023-02-05T05:33:09;102191.06;;;8.69;92.22
36234;BME280;43467;50.890;5.982;2023-02-05T05:35:35;102188.47;;;8.63;92.25
36234;BME280;43467;50.890;5.982;2023-02-05T05:38:01;102190.25;;;8.56;92.45
36234;BME280;43467;50.890;5.982;2023-02-05T05:40:26;102190.16;;;8.74;92.11
36234;BME280;43467;50.890;5.982;2023-02-05T05:43:13;102190.22;;;8.62;92.23
36234;BME280;43467;50.890;5.982;2023-02-05T05:45:58;102189.28;;;8.71;92.44
36234;BME280;43467;50.890;5.982;2023-02-05T05:48:24;102189.25;;;8.72;92.55
36234;BME280;43467;50.890;5.982;2023-02-05T05:50:49;102190.19;;;8.71;92.19
36234;BME280;43467;50.890;5.982;2023-02-05T05:53:15;102182.22;;;8.73;92.09
36234;BME280;43467;50.890;5.982;2023-02-05T05:55:41;102178.66;;;8.77;91.69
36234;BME280;43467;50.890;5.982;2023-02-05T05:58:07;102184.88;;;8.68;92.19
36234;BME280;43467;50.890;5.982;2023-02-05T06:00:34;102179.69;;;8.59;92.70
36234;BME280;43467;50.890;5.982;2023-02-05T06:02:59;102181.44;;;8.57;92.84
36234;BME280;43467;50.890;5.982;2023-02-05T06:05:24;102183.16;;;8.64;92.52
36234;BME280;43467;50.890;5.982;2023-02-05T06:07:50;102186.72;;;8.59;91.97
36234;BME280;43467;50.890;5.982;2023-02-05T06:10:15;102180.53;;;8.67;91.62
36234;BME280;43467;50.890;5.982;2023-02-05T06:12:41;102176.16;;;8.57;91.66
36234;BME280;43467;50.890;5.982;2023-02-05T06:15:07;102179.75;;;8.52;91.93
36234;BME280;43467;50.890;5.982;2023-02-05T06:17:32;102177.94;;;8.57;91.83
36234;BME280;43467;50.890;5.982;2023-02-05T06:19:58;102167.38;;;8.57;91.21
36234;BME280;43467;50.890;5.982;2023-02-05T06:22:23;102168.31;;;8.48;91.71
36234;BME280;43467;50.890;5.982;2023-02-05T06:24:48;102170.94;;;8.48;92.03
36234;BME280;43467;50.890;5.982;2023-02-05T06:27:14;102166.59;;;8.39;91.60
36234;BME280;43467;50.890;5.982;2023-02-05T06:29:39;102164.75;;;8.54;91.41
36234;BME280;43467;50.890;5.982;2023-02-05T06:32:05;102168.31;;;8.50;91.03
36234;BME280;43467;50.890;5.982;2023-02-05T06:34:30;102167.38;;;8.58;90.96
36234;BME280;43467;50.890;5.982;2023-02-05T06:36:55;102158.59;;;8.53;90.62
36234;BME280;43467;50.890;5.982;2023-02-05T06:39:21;102157.69;;;8.57;90.78
36234;BME280;43467;50.890;5.982;2023-02-05T06:41:46;102150.66;;;8.59;90.48
36234;BME280;43467;50.890;5.982;2023-02-05T06:44:12;102154.19;;;8.52;90.68
36234;BME280;43467;50.890;5.982;2023-02-05T06:46:37;102150.72;;;8.46;90.70
36234;BME280;43467;50.890;5.982;2023-02-05T06:49:02;102136.63;;;8.51;91.22
36234;BME280;43467;50.890;5.982;2023-02-05T06:51:28;102147.16;;;8.56;90.67
36234;BME280;43467;50.890;5.982;2023-02-05T06:53:53;102145.44;;;8.49;90.76
36234;BME280;43467;50.890;5.982;2023-02-05T06:56:21;102141.13;;;8.28;91.18
36234;BME280;43467;50.890;5.982;2023-02-05T06:58:47;102139.41;;;8.19;91.69
36234;BME280;43467;50.890;5.982;2023-02-05T07:01:12;102149.91;;;8.28;91.52
36234;BME280;43467;50.890;5.982;2023-02-05T07:03:38;102146.34;;;8.40;91.17
36234;BME280;43467;50.890;5.982;2023-02-05T07:06:04;102142.81;;;8.47;90.54
36234;BME280;43467;50.890;5.982;2023-02-05T07:08:30;102142.91;;;8.30;90.40
36234;BME280;43467;50.890;5.982;2023-02-05T07:10:56;102149.88;;;8.40;90.23
36234;BME280;43467;50.890;5.982;2023-02-05T07:13:21;102157.81;;;8.44;90.04
36234;BME280;43467;50.890;5.982;2023-02-05T07:15:46;102161.31;;;8.41;89.86
36234;BME280;43467;50.890;5.982;2023-02-05T07:18:12;102160.47;;;8.36;90.29
36234;BME280;43467;50.890;5.982;2023-02-05T07:20:38;102163.97;;;8.38;90.17
36234;BME280;43467;50.890;5.982;2023-02-05T07:23:03;102158.78;;;8.18;90.66
36234;BME280;43467;50.890;5.982;2023-02-05T07:25:29;102163.22;;;8.07;92.39
36234;BME280;43467;50.890;5.982;2023-02-05T07:28:00;102165.81;;;8.18;92.09
36234;BME280;43467;50.890;5.982;2023-02-05T07:30:26;102164.97;;;8.08;92.62
36234;BME280;43467;50.890;5.982;2023-02-05T07:32:51;102150.00;;;8.16;92.85
36234;BME280;43467;50.890;5.982;2023-02-05T07:35:17;102157.94;;;8.10;93.09
36234;BME280;43467;50.890;5.982;2023-02-05T07:37:42;102164.09;;;8.11;93.98
36234;BME280;43467;50.890;5.982;2023-02-05T07:40:08;102173.75;;;8.13;93.55
36234;BME280;43467;50.890;5.982;2023-02-05T07:42:33;102172.00;;;8.08;93.81
36234;BME280;43467;50.890;5.982;2023-02-05T07:44:59;102180.91;;;7.84;93.59
36234;BME280;43467;50.890;5.982;2023-02-05T07:47:24;102194.13;;;7.70;95.21
36234;BME280;43467;50.890;5.982;2023-02-05T07:49:49;102202.06;;;7.55;96.48
36234;BME280;43467;50.890;5.982;2023-02-05T07:52:15;102193.28;;;7.56;96.87
36234;BME280;43467;50.890;5.982;2023-02-05T07:54:40;102188.94;;;7.37;97.70
36234;BME280;43467;50.890;5.982;2023-02-05T07:57:06;102194.19;;;7.38;96.98
36234;BME280;43467;50.890;5.982;2023-02-05T07:59:31;102187.19;;;7.18;98.04
36234;BME280;43467;50.890;5.982;2023-02-05T08:01:56;102170.50;;;7.26;98.10
36234;BME280;43467;50.890;5.982;2023-02-05T08:04:22;102199.47;;;7.40;98.04
36234;BME280;43467;50.890;5.982;2023-02-05T08:06:47;102203.88;;;7.36;98.44
36234;BME280;43467;50.890;5.982;2023-02-05T08:09:12;102232.84;;;7.32;97.69
36234;BME280;43467;50.890;5.982;2023-02-05T08:11:38;102211.78;;;7.32;98.40
36234;BME280;43467;50.890;5.982;2023-02-05T08:14:04;102230.22;;;7.27;97.29
36234;BME280;43467;50.890;5.982;2023-02-05T08:16:29;102232.84;;;7.27;97.28
36234;BME280;43467;50.890;5.982;2023-02-05T08:18:54;102247.78;;;7.30;96.57
36234;BME280;43467;50.890;5.982;2023-02-05T08:21:20;102246.91;;;7.19;94.54
36234;BME280;43467;50.890;5.982;2023-02-05T08:23:46;102315.34;;;6.94;93.70
36234;BME280;43467;50.890;5.982;2023-02-05T08:26:12;102260.06;;;6.94;93.17
36234;BME280;43467;50.890;5.982;2023-02-05T08:28:40;102295.19;;;7.10;93.31
36234;BME280;43467;50.890;5.982;2023-02-05T08:31:13;102285.50;;;7.01;91.10
36234;BME280;43467;50.890;5.982;2023-02-05T08:33:39;102295.19;;;6.96;91.78
36234;BME280;43467;50.890;5.982;2023-02-05T08:36:05;102302.22;;;7.08;90.33
36234;BME280;43467;50.890;5.982;2023-02-05T08:38:31;102296.09;;;7.21;89.40
36234;BME280;43467;50.890;5.982;2023-02-05T08:40:56;102311.03;;;7.16;89.13
36234;BME280;43467;50.890;5.982;2023-02-05T08:43:22;102307.50;;;7.26;88.31
36234;BME280;43467;50.890;5.982;2023-02-05T08:45:48;102352.28;;;7.26;86.99
36234;BME280;43467;50.890;5.982;2023-02-05T08:48:13;102308.41;;;7.28;86.84
36234;BME280;43467;50.890;5.982;2023-02-05T08:50:39;102330.31;;;7.15;86.85
36234;BME280;43467;50.890;5.982;2023-02-05T08:53:04;102327.72;;;7.33;86.52
36234;BME280;43467;50.890;5.982;2023-02-05T08:55:31;102340.03;;;7.36;85.47
36234;BME280;43467;50.890;5.982;2023-02-05T08:57:56;102316.31;;;7.25;84.24
36234;BME280;43467;50.890;5.982;2023-02-05T09:00:22;102326.81;;;7.30;84.97
36234;BME280;43467;50.890;5.982;2023-02-05T09:02:47;102328.56;;;7.26;84.45
36234;BME280;43467;50.890;5.982;2023-02-05T09:05:13;102325.09;;;7.21;85.08
36234;BME280;43467;50.890;5.982;2023-02-05T09:07:39;102321.59;;;7.37;84.94
36234;BME280;43467;50.890;5.982;2023-02-05T09:10:07;102356.69;;;7.32;84.16
36234;BME280;43467;50.890;5.982;2023-02-05T09:12:32;102321.59;;;7.33;84.98
36234;BME280;43467;50.890;5.982;2023-02-05T09:14:58;102312.78;;;7.32;84.90
36234;BME280;43467;50.890;5.982;2023-02-05T09:17:23;102321.59;;;7.33;85.19
36234;BME280;43467;50.890;5.982;2023-02-05T09:19:48;102338.25;;;7.35;85.15
36234;BME280;43467;50.890;5.982;2023-02-05T09:22:14;102325.97;;;7.35;85.87
36234;BME280;43467;50.890;5.982;2023-02-05T09:24:39;102318.06;;;7.32;84.94
36234;BME280;43467;50.890;5.982;2023-02-05T09:27:05;102338.22;;;7.18;85.97
36234;BME280;43467;50.890;5.982;2023-02-05T09:29:30;102337.31;;;7.03;85.99
36234;BME280;43467;50.890;5.982;2023-02-05T09:31:55;102342.63;;;7.09;86.01
36234;BME280;43467;50.890;5.982;2023-02-05T09:34:21;102361.00;;;7.01;85.21
36234;BME280;43467;50.890;5.982;2023-02-05T09:36:46;102345.22;;;7.10;85.61
36234;BME280;43467;50.890;5.982;2023-02-05T09:39:12;102351.38;;;7.09;85.52
36234;BME280;43467;50.890;5.982;2023-02-05T09:41:50;102353.16;;;7.13;85.69
36234;BME280;43467;50.890;5.982;2023-02-05T09:49:45;102372.50;;;7.17;84.54
36234;BME280;43467;50.890;5.982;2023-02-05T09:54:43;102354.06;;;7.24;83.56
36234;BME280;43467;50.890;5.982;2023-02-05T09:57:14;102356.66;;;7.12;83.52
36234;BME280;43467;50.890;5.982;2023-02-05T09:59:42;102348.78;;;7.20;83.03
36234;BME280;43467;50.890;5.982;2023-02-05T10:02:21;102341.75;;;7.17;82.41
36234;BME280;43467;50.890;5.982;2023-02-05T10:04:52;102346.16;;;7.24;82.60
36234;BME280;43467;50.890;5.982;2023-02-05T10:10:18;102354.06;;;7.32;80.88
36234;BME280;43467;50.890;5.982;2023-02-05T10:15:58;102347.03;;;7.43;80.54
36234;BME280;43467;50.890;5.982;2023-02-05T10:19:01;102349.69;;;7.51;80.05
36234;BME280;43467;50.890;5.982;2023-02-05T10:22:02;102350.56;;;7.40;80.21
36234;BME280;43467;50.890;5.982;2023-02-05T10:24:42;102369.88;;;7.32;79.90
36234;BME280;43467;50.890;5.982;2023-02-05T10:27:19;102339.13;;;7.34;80.33
36234;BME280;43467;50.890;5.982;2023-02-05T10:32:53;102344.41;;;7.47;80.99
36234;BME280;43467;50.890;5.982;2023-02-05T10:38:25;102334.75;;;7.54;80.85
36234;BME280;43467;50.890;5.982;2023-02-05T10:40:57;102335.66;;;7.58;81.79
36234;BME280;43467;50.890;5.982;2023-02-05T10:46:14;102334.78;;;7.62;82.16
36234;BME280;43467;50.890;5.982;2023-02-05T10:48:50;102312.81;;;7.61;81.85
36234;BME280;43467;50.890;5.982;2023-02-05T10:51:43;102327.72;;;7.59;81.57
36234;BME280;43467;50.890;5.982;2023-02-05T10:54:28;102311.03;;;7.68;83.12
36234;BME280;43467;50.890;5.982;2023-02-05T10:56:56;102315.41;;;7.67;82.65
36234;BME280;43467;50.890;5.982;2023-02-05T10:59:30;102315.41;;;7.75;83.54
36234;BME280;43467;50.890;5.982;2023-02-05T11:02:07;102310.13;;;7.76;82.99
36234;BME280;43467;50.890;5.982;2023-02-05T11:04:46;102305.75;;;7.56;81.49
36234;BME280;43467;50.890;5.982;2023-02-05T11:07:19;102316.31;;;7.69;82.10
36234;BME280;43467;50.890;5.982;2023-02-05T11:09:45;102313.66;;;7.69;82.09
36234;BME280;43467;50.890;5.982;2023-02-05T11:12:19;102318.06;;;7.69;81.95
36234;BME280;43467;50.890;5.982;2023-02-05T11:14:55;102322.41;;;7.91;81.74
36234;BME280;43467;50.890;5.982;2023-02-05T11:17:22;102306.59;;;7.83;79.74
36234;BME280;43467;50.890;5.982;2023-02-05T11:22:36;102304.88;;;7.76;80.28
36234;BME280;43467;50.890;5.982;2023-02-05T11:27:41;102330.38;;;7.73;79.26
36234;BME280;43467;50.890;5.982;2023-02-05T11:30:32;102335.63;;;7.67;79.50
36234;BME280;43467;50.890;5.982;2023-02-05T11:36:06;102334.72;;;7.92;79.72
36234;BME280;43467;50.890;5.982;2023-02-05T11:38:46;102324.19;;;7.87;78.63
36234;BME280;43467;50.890;5.982;2023-02-05T11:43:52;102315.41;;;7.81;78.63
36234;BME280;43467;50.890;5.982;2023-02-05T11:46:23;102323.34;;;7.69;78.56
36234;BME280;43467;50.890;5.982;2023-02-05T11:54:21;102316.31;;;7.78;77.94
36234;BME280;43467;50.890;5.982;2023-02-05T12:08:46;102329.44;;;7.97;77.24
36234;BME280;43467;50.890;5.982;2023-02-05T12:13:23;102334.75;;;7.93;77.38
36234;BME280;43467;50.890;5.982;2023-02-05T12:16:15;102334.72;;;8.06;77.03
36234;BME280;43467;50.890;5.982;2023-02-05T12:21:32;102316.22;;;8.12;76.47
36234;BME280;43467;50.890;5.982;2023-02-05T12:27:26;102320.63;;;8.14;75.49
36234;BME280;43467;50.890;5.982;2023-02-05T12:33:20;102315.38;;;8.02;74.59
36234;BME280;43467;50.890;5.982;2023-02-05T12:38:21;102310.09;;;8.10;74.37
36234;BME280;43467;50.890;5.982;2023-02-05T12:41:26;102306.56;;;8.03;73.70
36234;BME280;43467;50.890;5.982;2023-02-05T12:44:01;102306.56;;;8.08;74.34
36234;BME280;43467;50.890;5.982;2023-02-05T12:47:07;102339.13;;;8.07;73.52
36234;BME280;43467;50.890;5.982;2023-02-05T12:49:59;102336.47;;;8.04;74.05
36234;BME280;43467;50.890;5.982;2023-02-05T12:55:17;102318.00;;;8.04;74.32
36234;BME280;43467;50.890;5.982;2023-02-05T12:57:48;102318.91;;;8.03;74.05
36234;BME280;43467;50.890;5.982;2023-02-05T13:00:23;102314.47;;;8.03;74.13
36234;BME280;43467;50.890;5.982;2023-02-05T13:05:51;102332.09;;;8.03;73.70
36234;BME280;43467;50.890;5.982;2023-02-05T13:08:47;102333.00;;;7.89;75.34
36234;BME280;43467;50.890;5.982;2023-02-05T13:16:38;102342.66;;;7.98;78.59
36234;BME280;43467;50.890;5.982;2023-02-05T13:19:24;102340.88;;;7.88;79.06
36234;BME280;43467;50.890;5.982;2023-02-05T13:21:52;102331.22;;;7.93;79.41
36234;BME280;43467;50.890;5.982;2023-02-05T13:24:43;102322.44;;;7.85;79.80
36234;BME280;43467;50.890;5.982;2023-02-05T13:27:33;102321.56;;;7.89;79.17
36234;BME280;43467;50.890;5.982;2023-02-05T13:30:43;102325.91;;;8.10;78.12
36234;BME280;43467;50.890;5.982;2023-02-05T13:33:10;102332.09;;;8.03;79.42
36234;BME280;43467;50.890;5.982;2023-02-05T13:36:31;102330.34;;;7.97;78.28
36234;BME280;43467;50.890;5.982;2023-02-05T13:46:47;102328.56;;;8.05;79.18
36234;BME280;43467;50.890;5.982;2023-02-05T14:00:44;102332.03;;;8.27;77.96
36234;BME280;43467;50.890;5.982;2023-02-05T14:03:25;102329.41;;;8.27;78.23
36234;BME280;43467;50.890;5.982;2023-02-05T14:05:55;102339.03;;;8.28;77.88
36234;BME280;43467;50.890;5.982;2023-02-05T14:08:26;102343.47;;;8.29;78.98
36234;BME280;43467;50.890;5.982;2023-02-05T14:10:59;102339.06;;;8.20;79.16
36234;BME280;43467;50.890;5.982;2023-02-05T14:13:28;102345.22;;;8.24;79.64
36234;BME280;43467;50.890;5.982;2023-02-05T14:15:58;102347.00;;;8.22;80.29
36234;BME280;43467;50.890;5.982;2023-02-05T14:18:48;102348.78;;;8.02;80.41
36234;BME280;43467;50.890;5.982;2023-02-05T14:26:54;102355.81;;;7.97;82.01
36234;BME280;43467;50.890;5.982;2023-02-05T14:32:09;102359.34;;;7.80;83.50
36234;BME280;43467;50.890;5.982;2023-02-05T14:37:00;102355.84;;;7.92;82.24
36234;BME280;43467;50.890;5.982;2023-02-05T14:39:28;102371.66;;;8.10;82.76
36234;BME280;43467;50.890;5.982;2023-02-05T14:41:58;102363.75;;;8.06;81.19
36234;BME280;43467;50.890;5.982;2023-02-05T14:52:02;102377.75;;;8.24;75.70
36234;BME280;43467;50.890;5.982;2023-02-05T14:54:31;102383.03;;;8.24;75.43
36234;BME280;43467;50.890;5.982;2023-02-05T14:59:54;102383.94;;;8.37;73.82
36234;BME280;43467;50.890;5.982;2023-02-05T15:08:14;102385.69;;;8.47;73.24
36234;BME280;43467;50.890;5.982;2023-02-05T15:13:19;102387.44;;;8.45;72.87
36234;BME280;43467;50.890;5.982;2023-02-05T15:16:14;102389.19;;;8.48;72.59
36234;BME280;43467;50.890;5.982;2023-02-05T15:18:46;102379.50;;;8.51;72.47
36234;BME280;43467;50.890;5.982;2023-02-05T15:23:44;102354.03;;;8.20;70.26
36234;BME280;43467;50.890;5.982;2023-02-05T15:28:58;102390.97;;;8.36;71.16
36234;BME280;43467;50.890;5.982;2023-02-05T15:36:44;102405.91;;;8.51;70.68
36234;BME280;43467;50.890;5.982;2023-02-05T15:39:16;102406.78;;;8.46;71.08
36234;BME280;43467;50.890;5.982;2023-02-05T15:41:44;102396.22;;;8.50;72.10
36234;BME280;43467;50.890;5.982;2023-02-05T15:44:24;102405.00;;;8.54;72.04
36234;BME280;43467;50.890;5.982;2023-02-05T15:46:51;102410.28;;;8.60;72.16